Terminal Aerodrome Forecast
Issued by NWS

Home | Current Version | Previous Version | Text Only | Print | Product List | Glossary On
Versions: 1 2 3 4 5 6 7 8 9 10 11 12 13 14 15 16 17 18 19 20 21 22 23 24 25 26 27 28 29 30
379
FTUS43 KDMX 271723
TAFMCW
TAF
KMCW 271723Z 2718/2818 19006KT P6SM OVC005
     FM272100 VRB03KT P6SM SCT005 BKN030
     FM280000 VRB03KT P6SM BKN035
     FM280200 19005KT P6SM SCT150
     FM280400 15004KT 4SM BR SCT006
      TEMPO 2810/2813 1SM BR BKN002
     FM281600 18007KT P6SM SCT035=

USA.gov is the U.S. government's official web portal to all federal, state and local government web resources and services.